Peotone Weather

Nearby METAR Reports

 

KIGQ - Lansing, Illinois, USA
Distance from station: NE 19mi, 30km
Updated: Wed, 08-Jul-2020 10:35pm CDT
Clear
Clear
 Wind from S
Wind: S 3 mph , 6 km/h
Temperature: 73°F , 23°C
Dew Point: 66°F , 19°C
Humidity: 78%
Barometer: 29.92 inHg , 1013.2 hPa
Clouds: Clear
Visibility: 10 miles , 16 km
2020/07/09 03:35 KIGQ 090335Z AUTO 19003KT 10SM CLR 23/19 A2992 RMK AO2 T02320187
KIKK - Kankakee, Illinois, USA
Distance from station: S 19mi, 30km
Updated: Wed, 08-Jul-2020 10:35pm CDT
Clear
Clear
 Wind from calm
Wind: Calm
Temperature: 75°F , 24°C
Dew Point: 70°F , 21°C
Humidity: 83%
Barometer: 29.92 inHg , 1013.2 hPa
Clouds: Clear
Visibility: 10 miles , 16 km
2020/07/09 03:35 KIKK 090335Z AUTO 00000KT 10SM CLR 24/21 A2992 RMK AO2 T02440205
 
KSJC - Joliet, Illinois, USA
Distance from station: WNW 24mi, 38km
Updated: Wed, 08-Jul-2020 9:53pm CDT
NOT Current
Clear
Clear
 Wind from NW
Wind: NW 8 mph , 13 km/h
Temperature: 72°F , 22°C
Dew Point: 50°F , 10°C
Humidity: 47%
Barometer: 29.86 inHg , 1011.2 hPa
Clouds: Clear
Visibility: 10 miles , 16 km
2020/07/09 02:53 KSJC 090253Z 32007KT 10SM CLR 22/10 A2986 RMK AO2 SLP109 T02220100 53005
KLOT - Romeoville, Illinois, USA
Distance from station: NW 26mi, 41km
Updated: Wed, 08-Jul-2020 10:35pm CDT
Clear
Clear
 Wind from SSE
Wind: SSE 5 mph , 7 km/h
Temperature: 75°F , 24°C
Dew Point: 70°F , 21°C
Humidity: 83%
Barometer: 29.91 inHg , 1012.9 hPa
Clouds: Clear
Visibility: 10 miles , 16 km
2020/07/09 03:35 KLOT 090335Z AUTO 16004KT 10SM CLR 24/21 A2991 RMK AO2 T02370208
 
KMDW - Midway Airport Chicago, Illinois, USA
Distance from station: N 31mi, 50km
Updated: Wed, 08-Jul-2020 9:53pm CDT
NOT Current
Mostly cloudy
Mostly cloudy
 Wind from calm
Wind: Calm
Temperature: 82°F , 28°C
Heat Index: 84°F , 29°C
Dew Point: 64°F , 18°C
Humidity: 55%
Barometer: 29.91 inHg , 1012.9 hPa
Clouds: Mostly cloudy
Visibility: 10 miles , 16 km
Cloud details: Few Clouds 15000 ft
Mostly cloudy 20000 ft
2020/07/09 02:53 KMDW 090253Z 00000KT 10SM FEW150 BKN200 28/18 A2991 RMK AO2 SLP115 T02830178 51010
KC09 - Morris, Illinois, USA
Distance from station: W 34mi, 54km
Updated: Wed, 08-Jul-2020 10:40pm CDT
Clear
Clear
 Wind from SSE
Wind: SSE 5 mph , 7 km/h
Temperature: 75°F , 24°C
Dew Point: 72°F , 22°C
Humidity: 89%
Barometer: 29.90 inHg , 1012.5 hPa
Clouds: Clear
Visibility: 10 miles , 16 km
2020/07/09 03:40 KC09 090340Z AUTO 16004KT 10SM CLR 24/22 A2990 RMK AO2

Metar display script from Saratoga-Weather.org